LFAT/LTQ METAR and TAF weather

Enter ICAO airport designator
Station Type Date Time Source
LFAT METAR 2020/07/04 08:00 UTC NOAA

LFAT 040800Z AUTO 22013KT 190V260 9999 OVC010 16/14 Q1015 TEMPO 3000 RA


Station Type Date Time Source
LFAT Decoded METAR 2020/07/04 08:00 UTC NOAA

Le Touquet, France (LFAT) 50-31N 001-37E 14M
Jul 04, 2020 - 04:00 AM EDT / 2020.07.04 0800 UTC
Wind: from the SW (220 degrees) at 15 MPH (13 KT) (direction variable):0
Visibility: greater than 7 mile(s):0
Sky conditions: overcast
Temperature: 60 F (16 C)
Dew Point: 57 F (14 C)
Relative Humidity: 87%
Pressure (altimeter): 29.97 in. Hg (1015 hPa)
ob: LFAT 040800Z AUTO 22013KT 190V260 9999 OVC010 16/14 Q1015 TEMPO 3000 RA
cycle: 8

Station Type Date Time Source
LFAT TAF 2018/07/14 09:21 UTC NOAA

TAF TAF LFAT 140800Z 1409/1421 09004KT 8000 NSC
BECMG 1409/1411 30010KT

Example: see airport list